sensor_id;sensor_type;location;lat;lon;timestamp;P1;durP1;ratioP1;P2;durP2;ratioP2
76712;SDS011;65640;43.154;25.658;2024-02-23T00:00:36;5.82;;;5.03;;
76712;SDS011;65640;43.154;25.658;2024-02-23T00:03:02;5.15;;;4.75;;
76712;SDS011;65640;43.154;25.658;2024-02-23T00:05:27;6.43;;;5.00;;
76712;SDS011;65640;43.154;25.658;2024-02-23T00:07:53;9.13;;;5.30;;
76712;SDS011;65640;43.154;25.658;2024-02-23T00:10:18;7.97;;;6.03;;
76712;SDS011;65640;43.154;25.658;2024-02-23T00:12:43;4.90;;;4.25;;
76712;SDS011;65640;43.154;25.658;2024-02-23T00:15:09;6.00;;;5.40;;
76712;SDS011;65640;43.154;25.658;2024-02-23T00:17:35;5.97;;;5.38;;
76712;SDS011;65640;43.154;25.658;2024-02-23T00:20:00;7.72;;;5.00;;
76712;SDS011;65640;43.154;25.658;2024-02-23T00:22:26;5.63;;;5.15;;
76712;SDS011;65640;43.154;25.658;2024-02-23T00:24:51;5.95;;;5.40;;
76712;SDS011;65640;43.154;25.658;2024-02-23T00:27:16;6.55;;;5.95;;
76712;SDS011;65640;43.154;25.658;2024-02-23T00:29:42;7.40;;;6.05;;
76712;SDS011;65640;43.154;25.658;2024-02-23T00:32:07;5.57;;;5.07;;
76712;SDS011;65640;43.154;25.658;2024-02-23T00:34:33;7.00;;;6.13;;
76712;SDS011;65640;43.154;25.658;2024-02-23T00:36:58;6.25;;;5.57;;
76712;SDS011;65640;43.154;25.658;2024-02-23T00:39:24;6.25;;;5.38;;
76712;SDS011;65640;43.154;25.658;2024-02-23T00:41:49;5.40;;;4.80;;
76712;SDS011;65640;43.154;25.658;2024-02-23T00:44:15;6.57;;;5.55;;
76712;SDS011;65640;43.154;25.658;2024-02-23T00:46:40;6.22;;;5.18;;
76712;SDS011;65640;43.154;25.658;2024-02-23T00:49:06;6.40;;;5.80;;
76712;SDS011;65640;43.154;25.658;2024-02-23T00:51:31;5.32;;;4.68;;
76712;SDS011;65640;43.154;25.658;2024-02-23T00:53:56;9.18;;;5.00;;
76712;SDS011;65640;43.154;25.658;2024-02-23T00:56:22;11.52;;;5.45;;
76712;SDS011;65640;43.154;25.658;2024-02-23T00:58:48;5.68;;;5.18;;
76712;SDS011;65640;43.154;25.658;2024-02-23T01:01:13;5.15;;;4.75;;
76712;SDS011;65640;43.154;25.658;2024-02-23T01:03:38;7.68;;;5.25;;
76712;SDS011;65640;43.154;25.658;2024-02-23T01:06:04;5.70;;;4.78;;
76712;SDS011;65640;43.154;25.658;2024-02-23T01:08:29;6.35;;;5.75;;
76712;SDS011;65640;43.154;25.658;2024-02-23T01:10:55;5.80;;;5.18;;
76712;SDS011;65640;43.154;25.658;2024-02-23T01:13:20;5.28;;;4.82;;
76712;SDS011;65640;43.154;25.658;2024-02-23T01:15:45;5.55;;;4.95;;
76712;SDS011;65640;43.154;25.658;2024-02-23T01:18:11;5.65;;;5.13;;
76712;SDS011;65640;43.154;25.658;2024-02-23T01:20:36;5.10;;;4.63;;
76712;SDS011;65640;43.154;25.658;2024-02-23T01:23:02;6.50;;;5.90;;
76712;SDS011;65640;43.154;25.658;2024-02-23T01:25:27;5.78;;;5.28;;
76712;SDS011;65640;43.154;25.658;2024-02-23T01:27:52;7.45;;;5.03;;
76712;SDS011;65640;43.154;25.658;2024-02-23T01:30:18;6.70;;;5.90;;
76712;SDS011;65640;43.154;25.658;2024-02-23T01:32:44;7.55;;;4.95;;
76712;SDS011;65640;43.154;25.658;2024-02-23T01:35:13;5.97;;;5.07;;
76712;SDS011;65640;43.154;25.658;2024-02-23T01:37:39;6.00;;;5.10;;
76712;SDS011;65640;43.154;25.658;2024-02-23T01:40:04;5.68;;;5.15;;
76712;SDS011;65640;43.154;25.658;2024-02-23T01:42:31;9.57;;;5.38;;
76712;SDS011;65640;43.154;25.658;2024-02-23T01:44:56;5.43;;;4.93;;
76712;SDS011;65640;43.154;25.658;2024-02-23T01:47:22;6.90;;;5.38;;
76712;SDS011;65640;43.154;25.658;2024-02-23T01:49:49;6.75;;;5.53;;
76712;SDS011;65640;43.154;25.658;2024-02-23T01:52:15;7.20;;;5.90;;
76712;SDS011;65640;43.154;25.658;2024-02-23T01:54:40;5.80;;;5.20;;
76712;SDS011;65640;43.154;25.658;2024-02-23T01:57:06;5.15;;;4.75;;
76712;SDS011;65640;43.154;25.658;2024-02-23T01:59:33;5.50;;;5.00;;
76712;SDS011;65640;43.154;25.658;2024-02-23T02:02:02;5.43;;;4.93;;
76712;SDS011;65640;43.154;25.658;2024-02-23T02:04:28;5.00;;;4.53;;
76712;SDS011;65640;43.154;25.658;2024-02-23T02:06:54;5.60;;;4.90;;
76712;SDS011;65640;43.154;25.658;2024-02-23T02:09:20;9.40;;;5.97;;
76712;SDS011;65640;43.154;25.658;2024-02-23T02:11:48;7.95;;;5.38;;
76712;SDS011;65640;43.154;25.658;2024-02-23T02:14:14;5.72;;;5.20;;
76712;SDS011;65640;43.154;25.658;2024-02-23T02:16:40;5.63;;;5.00;;
76712;SDS011;65640;43.154;25.658;2024-02-23T02:19:05;6.47;;;5.45;;
76712;SDS011;65640;43.154;25.658;2024-02-23T02:21:31;7.18;;;5.47;;
76712;SDS011;65640;43.154;25.658;2024-02-23T02:23:58;6.45;;;5.40;;
76712;SDS011;65640;43.154;25.658;2024-02-23T02:26:23;7.30;;;5.65;;
76712;SDS011;65640;43.154;25.658;2024-02-23T02:28:48;6.35;;;5.60;;
76712;SDS011;65640;43.154;25.658;2024-02-23T02:31:14;5.25;;;4.85;;
76712;SDS011;65640;43.154;25.658;2024-02-23T02:33:42;7.72;;;5.90;;
76712;SDS011;65640;43.154;25.658;2024-02-23T02:36:07;5.32;;;4.82;;
76712;SDS011;65640;43.154;25.658;2024-02-23T02:38:33;6.10;;;5.50;;
76712;SDS011;65640;43.154;25.658;2024-02-23T02:40:58;6.80;;;5.55;;
76712;SDS011;65640;43.154;25.658;2024-02-23T02:43:25;5.50;;;4.90;;
76712;SDS011;65640;43.154;25.658;2024-02-23T02:45:53;7.75;;;4.97;;
76712;SDS011;65640;43.154;25.658;2024-02-23T02:48:19;6.45;;;5.85;;
76712;SDS011;65640;43.154;25.658;2024-02-23T02:50:44;6.72;;;6.13;;
76712;SDS011;65640;43.154;25.658;2024-02-23T02:53:10;6.97;;;6.20;;
76712;SDS011;65640;43.154;25.658;2024-02-23T02:55:42;8.23;;;6.35;;
76712;SDS011;65640;43.154;25.658;2024-02-23T02:58:08;6.38;;;5.18;;
76712;SDS011;65640;43.154;25.658;2024-02-23T03:00:33;7.68;;;5.40;;
76712;SDS011;65640;43.154;25.658;2024-02-23T03:02:59;12.07;;;5.45;;
76712;SDS011;65640;43.154;25.658;2024-02-23T03:05:24;6.75;;;5.70;;
76712;SDS011;65640;43.154;25.658;2024-02-23T03:07:49;5.97;;;5.47;;
76712;SDS011;65640;43.154;25.658;2024-02-23T03:10:15;6.57;;;4.88;;
76712;SDS011;65640;43.154;25.658;2024-02-23T03:12:41;6.07;;;5.57;;
76712;SDS011;65640;43.154;25.658;2024-02-23T03:15:06;5.80;;;5.25;;
76712;SDS011;65640;43.154;25.658;2024-02-23T03:19:59;7.53;;;5.85;;
76712;SDS011;65640;43.154;25.658;2024-02-23T03:22:24;7.07;;;5.60;;
76712;SDS011;65640;43.154;25.658;2024-02-23T03:24:49;6.00;;;5.40;;
76712;SDS011;65640;43.154;25.658;2024-02-23T03:27:15;5.90;;;5.40;;
76712;SDS011;65640;43.154;25.658;2024-02-23T03:29:40;7.03;;;6.30;;
76712;SDS011;65640;43.154;25.658;2024-02-23T03:32:06;8.48;;;6.28;;
76712;SDS011;65640;43.154;25.658;2024-02-23T03:34:31;6.00;;;4.97;;
76712;SDS011;65640;43.154;25.658;2024-02-23T03:36:57;8.68;;;5.70;;
76712;SDS011;65640;43.154;25.658;2024-02-23T03:39:23;6.43;;;5.47;;
76712;SDS011;65640;43.154;25.658;2024-02-23T03:41:49;9.27;;;6.15;;
76712;SDS011;65640;43.154;25.658;2024-02-23T03:44:14;6.95;;;6.10;;
76712;SDS011;65640;43.154;25.658;2024-02-23T03:46:40;6.22;;;5.60;;
76712;SDS011;65640;43.154;25.658;2024-02-23T03:49:05;6.35;;;5.75;;
76712;SDS011;65640;43.154;25.658;2024-02-23T03:51:30;5.40;;;4.90;;
76712;SDS011;65640;43.154;25.658;2024-02-23T03:56:23;5.20;;;4.70;;
76712;SDS011;65640;43.154;25.658;2024-02-23T03:58:48;6.32;;;5.72;;
76712;SDS011;65640;43.154;25.658;2024-02-23T04:01:13;5.63;;;5.07;;
76712;SDS011;65640;43.154;25.658;2024-02-23T04:03:39;6.85;;;6.15;;
76712;SDS011;65640;43.154;25.658;2024-02-23T04:06:05;7.20;;;5.90;;
76712;SDS011;65640;43.154;25.658;2024-02-23T04:08:31;8.65;;;5.55;;
76712;SDS011;65640;43.154;25.658;2024-02-23T04:10:57;7.20;;;5.88;;
76712;SDS011;65640;43.154;25.658;2024-02-23T04:13:22;8.10;;;5.82;;
76712;SDS011;65640;43.154;25.658;2024-02-23T04:15:48;9.25;;;5.95;;
76712;SDS011;65640;43.154;25.658;2024-02-23T04:18:13;6.35;;;5.47;;
76712;SDS011;65640;43.154;25.658;2024-02-23T04:20:39;7.13;;;5.72;;
76712;SDS011;65640;43.154;25.658;2024-02-23T04:23:04;6.13;;;5.57;;
76712;SDS011;65640;43.154;25.658;2024-02-23T04:25:29;7.55;;;5.85;;
76712;SDS011;65640;43.154;25.658;2024-02-23T04:27:55;6.75;;;5.03;;
76712;SDS011;65640;43.154;25.658;2024-02-23T04:30:20;6.30;;;5.68;;
76712;SDS011;65640;43.154;25.658;2024-02-23T04:32:45;7.97;;;6.20;;
76712;SDS011;65640;43.154;25.658;2024-02-23T04:35:11;6.95;;;6.20;;
76712;SDS011;65640;43.154;25.658;2024-02-23T04:37:36;8.18;;;5.90;;
76712;SDS011;65640;43.154;25.658;2024-02-23T04:40:03;6.75;;;6.07;;
76712;SDS011;65640;43.154;25.658;2024-02-23T04:42:30;8.85;;;6.13;;
76712;SDS011;65640;43.154;25.658;2024-02-23T04:44:56;9.45;;;6.85;;
76712;SDS011;65640;43.154;25.658;2024-02-23T04:47:21;8.52;;;6.40;;
76712;SDS011;65640;43.154;25.658;2024-02-23T04:49:47;8.70;;;6.60;;
76712;SDS011;65640;43.154;25.658;2024-02-23T04:52:12;8.50;;;6.88;;
76712;SDS011;65640;43.154;25.658;2024-02-23T04:54:38;13.30;;;6.93;;
76712;SDS011;65640;43.154;25.658;2024-02-23T04:57:03;7.15;;;6.40;;
76712;SDS011;65640;43.154;25.658;2024-02-23T04:59:28;8.32;;;6.53;;
76712;SDS011;65640;43.154;25.658;2024-02-23T05:01:56;6.97;;;6.28;;
76712;SDS011;65640;43.154;25.658;2024-02-23T05:04:22;8.07;;;6.45;;
76712;SDS011;65640;43.154;25.658;2024-02-23T05:06:47;7.43;;;6.40;;
76712;SDS011;65640;43.154;25.658;2024-02-23T05:09:12;6.18;;;5.57;;
76712;SDS011;65640;43.154;25.658;2024-02-23T05:11:38;11.23;;;6.60;;
76712;SDS011;65640;43.154;25.658;2024-02-23T05:14:04;11.13;;;6.88;;
76712;SDS011;65640;43.154;25.658;2024-02-23T05:16:29;11.13;;;7.25;;
76712;SDS011;65640;43.154;25.658;2024-02-23T05:18:54;6.68;;;5.85;;
76712;SDS011;65640;43.154;25.658;2024-02-23T05:21:20;9.20;;;6.57;;
76712;SDS011;65640;43.154;25.658;2024-02-23T05:23:45;9.43;;;6.30;;
76712;SDS011;65640;43.154;25.658;2024-02-23T05:26:11;8.25;;;6.53;;
76712;SDS011;65640;43.154;25.658;2024-02-23T05:28:37;10.75;;;6.68;;
76712;SDS011;65640;43.154;25.658;2024-02-23T05:31:03;7.97;;;6.30;;
76712;SDS011;65640;43.154;25.658;2024-02-23T05:33:29;8.55;;;6.82;;
76712;SDS011;65640;43.154;25.658;2024-02-23T05:35:55;11.50;;;7.97;;
76712;SDS011;65640;43.154;25.658;2024-02-23T05:38:20;14.60;;;9.52;;
76712;SDS011;65640;43.154;25.658;2024-02-23T05:40:45;10.45;;;8.38;;
76712;SDS011;65640;43.154;25.658;2024-02-23T05:43:11;10.93;;;8.07;;
76712;SDS011;65640;43.154;25.658;2024-02-23T05:45:36;10.52;;;6.85;;
76712;SDS011;65640;43.154;25.658;2024-02-23T05:48:02;15.93;;;8.05;;
76712;SDS011;65640;43.154;25.658;2024-02-23T05:50:28;16.42;;;8.82;;
76712;SDS011;65640;43.154;25.658;2024-02-23T05:52:53;24.80;;;9.63;;
76712;SDS011;65640;43.154;25.658;2024-02-23T05:55:18;9.57;;;7.57;;
76712;SDS011;65640;43.154;25.658;2024-02-23T05:57:44;16.40;;;9.05;;
76712;SDS011;65640;43.154;25.658;2024-02-23T06:00:10;11.77;;;7.32;;
76712;SDS011;65640;43.154;25.658;2024-02-23T06:02:36;12.68;;;6.65;;
76712;SDS011;65640;43.154;25.658;2024-02-23T06:05:01;11.77;;;8.05;;
76712;SDS011;65640;43.154;25.658;2024-02-23T06:07:26;12.05;;;7.70;;
76712;SDS011;65640;43.154;25.658;2024-02-23T06:09:57;7.60;;;6.50;;
76712;SDS011;65640;43.154;25.658;2024-02-23T06:12:22;10.77;;;7.85;;
76712;SDS011;65640;43.154;25.658;2024-02-23T06:14:48;8.00;;;6.40;;
76712;SDS011;65640;43.154;25.658;2024-02-23T06:17:13;11.00;;;7.45;;
76712;SDS011;65640;43.154;25.658;2024-02-23T06:19:39;7.45;;;6.07;;
76712;SDS011;65640;43.154;25.658;2024-02-23T06:22:04;8.82;;;7.10;;
76712;SDS011;65640;43.154;25.658;2024-02-23T06:24:29;10.20;;;6.15;;
76712;SDS011;65640;43.154;25.658;2024-02-23T06:26:55;6.10;;;5.55;;
76712;SDS011;65640;43.154;25.658;2024-02-23T06:29:20;6.72;;;5.72;;
76712;SDS011;65640;43.154;25.658;2024-02-23T06:31:45;6.15;;;5.65;;
76712;SDS011;65640;43.154;25.658;2024-02-23T06:34:14;5.93;;;5.32;;
76712;SDS011;65640;43.154;25.658;2024-02-23T06:36:40;6.97;;;6.28;;
76712;SDS011;65640;43.154;25.658;2024-02-23T06:39:06;8.88;;;6.63;;
76712;SDS011;65640;43.154;25.658;2024-02-23T06:41:32;7.80;;;5.88;;
76712;SDS011;65640;43.154;25.658;2024-02-23T06:43:57;7.85;;;6.95;;
76712;SDS011;65640;43.154;25.658;2024-02-23T06:46:22;6.65;;;5.97;;
76712;SDS011;65640;43.154;25.658;2024-02-23T06:48:48;11.57;;;8.05;;
76712;SDS011;65640;43.154;25.658;2024-02-23T06:51:13;8.98;;;6.85;;
76712;SDS011;65640;43.154;25.658;2024-02-23T06:53:40;8.70;;;6.20;;
76712;SDS011;65640;43.154;25.658;2024-02-23T06:56:06;10.25;;;7.80;;
76712;SDS011;65640;43.154;25.658;2024-02-23T06:58:31;16.13;;;9.88;;
76712;SDS011;65640;43.154;25.658;2024-02-23T07:00:57;18.25;;;11.70;;
76712;SDS011;65640;43.154;25.658;2024-02-23T07:03:22;9.70;;;8.20;;
76712;SDS011;65640;43.154;25.658;2024-02-23T07:05:48;8.77;;;5.80;;
76712;SDS011;65640;43.154;25.658;2024-02-23T07:13:05;3.97;;;3.58;;
76712;SDS011;65640;43.154;25.658;2024-02-23T07:15:32;9.13;;;5.78;;
76712;SDS011;65640;43.154;25.658;2024-02-23T07:17:58;7.10;;;5.72;;
76712;SDS011;65640;43.154;25.658;2024-02-23T07:20:23;7.45;;;6.35;;
76712;SDS011;65640;43.154;25.658;2024-02-23T07:22:48;9.45;;;6.45;;
76712;SDS011;65640;43.154;25.658;2024-02-23T07:25:17;8.07;;;6.30;;
76712;SDS011;65640;43.154;25.658;2024-02-23T07:27:45;7.38;;;6.43;;
76712;SDS011;65640;43.154;25.658;2024-02-23T07:30:11;8.50;;;5.97;;
76712;SDS011;65640;43.154;25.658;2024-02-23T07:32:37;14.48;;;10.82;;
76712;SDS011;65640;43.154;25.658;2024-02-23T07:35:02;10.70;;;6.47;;
76712;SDS011;65640;43.154;25.658;2024-02-23T07:37:29;7.53;;;6.60;;
76712;SDS011;65640;43.154;25.658;2024-02-23T07:39:54;7.30;;;5.88;;
76712;SDS011;65640;43.154;25.658;2024-02-23T07:42:20;7.03;;;5.65;;
76712;SDS011;65640;43.154;25.658;2024-02-23T07:44:45;8.48;;;6.25;;
76712;SDS011;65640;43.154;25.658;2024-02-23T07:47:11;7.72;;;6.93;;
76712;SDS011;65640;43.154;25.658;2024-02-23T07:49:36;7.63;;;6.82;;
76712;SDS011;65640;43.154;25.658;2024-02-23T07:52:02;9.38;;;6.88;;
76712;SDS011;65640;43.154;25.658;2024-02-23T07:54:28;9.52;;;6.78;;
76712;SDS011;65640;43.154;25.658;2024-02-23T07:56:53;6.47;;;5.95;;
76712;SDS011;65640;43.154;25.658;2024-02-23T07:59:18;8.30;;;5.95;;
76712;SDS011;65640;43.154;25.658;2024-02-23T08:01:44;7.43;;;6.25;;
76712;SDS011;65640;43.154;25.658;2024-02-23T08:04:10;8.27;;;6.90;;
76712;SDS011;65640;43.154;25.658;2024-02-23T08:06:35;8.93;;;6.85;;
76712;SDS011;65640;43.154;25.658;2024-02-23T08:09:00;8.95;;;6.85;;
76712;SDS011;65640;43.154;25.658;2024-02-23T08:11:26;6.32;;;5.50;;
76712;SDS011;65640;43.154;25.658;2024-02-23T08:13:51;7.35;;;6.53;;
76712;SDS011;65640;43.154;25.658;2024-02-23T08:16:16;7.60;;;6.90;;
76712;SDS011;65640;43.154;25.658;2024-02-23T08:18:42;6.63;;;6.03;;
76712;SDS011;65640;43.154;25.658;2024-02-23T08:21:08;7.07;;;5.97;;
76712;SDS011;65640;43.154;25.658;2024-02-23T08:23:35;5.63;;;5.13;;
76712;SDS011;65640;43.154;25.658;2024-02-23T08:26:01;6.30;;;5.72;;
76712;SDS011;65640;43.154;25.658;2024-02-23T08:28:26;5.50;;;5.03;;
76712;SDS011;65640;43.154;25.658;2024-02-23T08:30:51;5.85;;;5.35;;
76712;SDS011;65640;43.154;25.658;2024-02-23T08:33:18;5.65;;;5.20;;
76712;SDS011;65640;43.154;25.658;2024-02-23T08:35:43;6.93;;;5.53;;
76712;SDS011;65640;43.154;25.658;2024-02-23T08:38:09;8.55;;;5.85;;
76712;SDS011;65640;43.154;25.658;2024-02-23T08:40:36;6.30;;;5.70;;
76712;SDS011;65640;43.154;25.658;2024-02-23T08:43:01;6.13;;;5.53;;
76712;SDS011;65640;43.154;25.658;2024-02-23T08:45:26;5.38;;;4.95;;
76712;SDS011;65640;43.154;25.658;2024-02-23T08:47:52;6.35;;;5.75;;
76712;SDS011;65640;43.154;25.658;2024-02-23T08:50:17;6.43;;;5.82;;
76712;SDS011;65640;43.154;25.658;2024-02-23T08:52:42;6.05;;;5.45;;
76712;SDS011;65640;43.154;25.658;2024-02-23T08:55:08;5.32;;;4.93;;
76712;SDS011;65640;43.154;25.658;2024-02-23T08:57:34;5.68;;;4.60;;
76712;SDS011;65640;43.154;25.658;2024-02-23T08:59:59;5.85;;;5.28;;
76712;SDS011;65640;43.154;25.658;2024-02-23T09:02:25;6.63;;;6.03;;
76712;SDS011;65640;43.154;25.658;2024-02-23T09:04:50;5.53;;;4.88;;
76712;SDS011;65640;43.154;25.658;2024-02-23T09:07:16;7.47;;;5.78;;
76712;SDS011;65640;43.154;25.658;2024-02-23T09:09:45;5.40;;;4.90;;
76712;SDS011;65640;43.154;25.658;2024-02-23T09:12:10;7.90;;;5.72;;
76712;SDS011;65640;43.154;25.658;2024-02-23T09:14:36;5.53;;;5.05;;
76712;SDS011;65640;43.154;25.658;2024-02-23T09:17:03;5.75;;;5.25;;
76712;SDS011;65640;43.154;25.658;2024-02-23T09:19:29;5.53;;;5.03;;
76712;SDS011;65640;43.154;25.658;2024-02-23T09:21:55;6.47;;;5.88;;
76712;SDS011;65640;43.154;25.658;2024-02-23T09:24:20;11.07;;;5.20;;
76712;SDS011;65640;43.154;25.658;2024-02-23T09:26:46;4.97;;;4.57;;
76712;SDS011;65640;43.154;25.658;2024-02-23T09:29:12;4.03;;;3.72;;
76712;SDS011;65640;43.154;25.658;2024-02-23T09:31:38;4.38;;;3.97;;
76712;SDS011;65640;43.154;25.658;2024-02-23T09:34:03;4.45;;;3.67;;
76712;SDS011;65640;43.154;25.658;2024-02-23T09:36:28;5.35;;;4.28;;
76712;SDS011;65640;43.154;25.658;2024-02-23T09:38:55;4.90;;;4.05;;
76712;SDS011;65640;43.154;25.658;2024-02-23T09:41:21;4.57;;;4.18;;
76712;SDS011;65640;43.154;25.658;2024-02-23T09:43:48;5.00;;;4.35;;
76712;SDS011;65640;43.154;25.658;2024-02-23T09:46:15;5.40;;;4.93;;
76712;SDS011;65640;43.154;25.658;2024-02-23T09:51:12;5.13;;;4.60;;
76712;SDS011;65640;43.154;25.658;2024-02-23T09:53:38;5.18;;;4.75;;
76712;SDS011;65640;43.154;25.658;2024-02-23T09:56:04;4.82;;;4.45;;
76712;SDS011;65640;43.154;25.658;2024-02-23T09:58:33;5.00;;;4.45;;
76712;SDS011;65640;43.154;25.658;2024-02-23T10:01:01;6.57;;;4.60;;
76712;SDS011;65640;43.154;25.658;2024-02-23T10:03:27;5.53;;;4.75;;
76712;SDS011;65640;43.154;25.658;2024-02-23T10:05:56;4.88;;;4.47;;
76712;SDS011;65640;43.154;25.658;2024-02-23T10:08:22;6.22;;;5.28;;
76712;SDS011;65640;43.154;25.658;2024-02-23T10:10:47;7.35;;;5.88;;
76712;SDS011;65640;43.154;25.658;2024-02-23T10:13:24;15.55;;;9.18;;
76712;SDS011;65640;43.154;25.658;2024-02-23T10:15:50;7.57;;;6.15;;
76712;SDS011;65640;43.154;25.658;2024-02-23T10:18:16;5.13;;;4.60;;
76712;SDS011;65640;43.154;25.658;2024-02-23T10:20:41;4.63;;;4.22;;
76712;SDS011;65640;43.154;25.658;2024-02-23T10:23:07;5.18;;;4.68;;
76712;SDS011;65640;43.154;25.658;2024-02-23T10:28:00;4.72;;;4.30;;
76712;SDS011;65640;43.154;25.658;2024-02-23T10:30:27;4.93;;;4.45;;
76712;SDS011;65640;43.154;25.658;2024-02-23T10:32:53;4.78;;;4.47;;
76712;SDS011;65640;43.154;25.658;2024-02-23T10:35:22;5.43;;;4.50;;
76712;SDS011;65640;43.154;25.658;2024-02-23T10:37:48;5.68;;;4.40;;
76712;SDS011;65640;43.154;25.658;2024-02-23T10:40:16;4.22;;;3.92;;
76712;SDS011;65640;43.154;25.658;2024-02-23T10:42:46;4.78;;;4.35;;
76712;SDS011;65640;43.154;25.658;2024-02-23T10:45:13;5.00;;;4.50;;
76712;SDS011;65640;43.154;25.658;2024-02-23T10:47:40;5.13;;;4.63;;
76712;SDS011;65640;43.154;25.658;2024-02-23T10:50:07;6.07;;;4.40;;
76712;SDS011;65640;43.154;25.658;2024-02-23T10:52:33;3.78;;;3.40;;
76712;SDS011;65640;43.154;25.658;2024-02-23T10:57:26;4.68;;;4.28;;
76712;SDS011;65640;43.154;25.658;2024-02-23T10:59:52;5.13;;;4.30;;
76712;SDS011;65640;43.154;25.658;2024-02-23T11:02:18;4.32;;;4.00;;
76712;SDS011;65640;43.154;25.658;2024-02-23T11:04:48;4.47;;;3.95;;
76712;SDS011;65640;43.154;25.658;2024-02-23T11:07:15;6.78;;;4.35;;
76712;SDS011;65640;43.154;25.658;2024-02-23T11:09:47;4.78;;;4.38;;
76712;SDS011;65640;43.154;25.658;2024-02-23T11:12:21;3.90;;;3.47;;
76712;SDS011;65640;43.154;25.658;2024-02-23T11:14:49;4.82;;;4.43;;
76712;SDS011;65640;43.154;25.658;2024-02-23T11:17:18;4.65;;;4.25;;
76712;SDS011;65640;43.154;25.658;2024-02-23T11:19:50;4.20;;;3.90;;
76712;SDS011;65640;43.154;25.658;2024-02-23T11:22:27;4.45;;;4.05;;
76712;SDS011;65640;43.154;25.658;2024-02-23T11:25:14;4.28;;;3.88;;
76712;SDS011;65640;43.154;25.658;2024-02-23T11:27:42;5.45;;;4.28;;
76712;SDS011;65640;43.154;25.658;2024-02-23T11:30:09;3.88;;;3.58;;
76712;SDS011;65640;43.154;25.658;2024-02-23T11:32:40;3.50;;;3.30;;
76712;SDS011;65640;43.154;25.658;2024-02-23T11:35:07;3.80;;;3.60;;
76712;SDS011;65640;43.154;25.658;2024-02-23T11:40:12;4.10;;;3.80;;
76712;SDS011;65640;43.154;25.658;2024-02-23T11:42:39;4.57;;;4.28;;
76712;SDS011;65640;43.154;25.658;2024-02-23T11:45:06;3.88;;;3.55;;
76712;SDS011;65640;43.154;25.658;2024-02-23T11:47:32;5.13;;;3.80;;
76712;SDS011;65640;43.154;25.658;2024-02-23T11:49:57;4.45;;;4.05;;
76712;SDS011;65640;43.154;25.658;2024-02-23T11:52:23;4.10;;;3.70;;
76712;SDS011;65640;43.154;25.658;2024-02-23T11:54:48;4.65;;;4.35;;
76712;SDS011;65640;43.154;25.658;2024-02-23T11:57:13;3.95;;;3.65;;
76712;SDS011;65640;43.154;25.658;2024-02-23T11:59:40;5.63;;;3.72;;
76712;SDS011;65640;43.154;25.658;2024-02-23T12:02:06;4.75;;;4.28;;
76712;SDS011;65640;43.154;25.658;2024-02-23T12:04:32;4.00;;;3.70;;
76712;SDS011;65640;43.154;25.658;2024-02-23T12:06:58;7.50;;;3.80;;
76712;SDS011;65640;43.154;25.658;2024-02-23T12:09:23;4.40;;;4.00;;
76712;SDS011;65640;43.154;25.658;2024-02-23T12:11:49;3.65;;;3.35;;
76712;SDS011;65640;43.154;25.658;2024-02-23T12:14:15;4.28;;;3.80;;
76712;SDS011;65640;43.154;25.658;2024-02-23T12:19:07;3.97;;;3.63;;
76712;SDS011;65640;43.154;25.658;2024-02-23T12:21:34;4.57;;;4.18;;
76712;SDS011;65640;43.154;25.658;2024-02-23T12:24:03;3.80;;;3.50;;
76712;SDS011;65640;43.154;25.658;2024-02-23T12:26:31;4.00;;;3.70;;
76712;SDS011;65640;43.154;25.658;2024-02-23T12:28:59;3.67;;;3.40;;
76712;SDS011;65640;43.154;25.658;2024-02-23T12:31:26;3.85;;;3.55;;
76712;SDS011;65640;43.154;25.658;2024-02-23T12:33:51;4.20;;;3.80;;
76712;SDS011;65640;43.154;25.658;2024-02-23T12:36:17;3.92;;;3.63;;
76712;SDS011;65640;43.154;25.658;2024-02-23T12:38:43;4.60;;;4.30;;
76712;SDS011;65640;43.154;25.658;2024-02-23T12:41:08;4.38;;;3.97;;
76712;SDS011;65640;43.154;25.658;2024-02-23T12:43:34;6.53;;;4.03;;
76712;SDS011;65640;43.154;25.658;2024-02-23T12:46:00;4.57;;;4.20;;
76712;SDS011;65640;43.154;25.658;2024-02-23T12:48:28;3.95;;;3.55;;
76712;SDS011;65640;43.154;25.658;2024-02-23T12:50:53;4.03;;;3.72;;
76712;SDS011;65640;43.154;25.658;2024-02-23T12:53:34;4.45;;;3.58;;
76712;SDS011;65640;43.154;25.658;2024-02-23T12:56:05;3.90;;;3.60;;
76712;SDS011;65640;43.154;25.658;2024-02-23T12:58:38;5.05;;;4.75;;
76712;SDS011;65640;43.154;25.658;2024-02-23T13:01:04;4.78;;;4.10;;
76712;SDS011;65640;43.154;25.658;2024-02-23T13:03:31;3.90;;;3.60;;
76712;SDS011;65640;43.154;25.658;2024-02-23T13:05:56;6.93;;;5.35;;
76712;SDS011;65640;43.154;25.658;2024-02-23T13:08:22;3.70;;;3.40;;
76712;SDS011;65640;43.154;25.658;2024-02-23T13:10:49;2.97;;;2.78;;
76712;SDS011;65640;43.154;25.658;2024-02-23T13:13:15;5.45;;;3.60;;
76712;SDS011;65640;43.154;25.658;2024-02-23T13:18:06;3.85;;;3.55;;
76712;SDS011;65640;43.154;25.658;2024-02-23T13:20:32;3.42;;;3.22;;
76712;SDS011;65640;43.154;25.658;2024-02-23T13:22:57;3.50;;;3.30;;
76712;SDS011;65640;43.154;25.658;2024-02-23T13:25:23;3.45;;;3.25;;
76712;SDS011;65640;43.154;25.658;2024-02-23T13:27:48;3.67;;;3.40;;
76712;SDS011;65640;43.154;25.658;2024-02-23T13:30:14;3.80;;;3.50;;
76712;SDS011;65640;43.154;25.658;2024-02-23T13:32:39;5.75;;;4.00;;
76712;SDS011;65640;43.154;25.658;2024-02-23T13:35:06;3.15;;;2.92;;
76712;SDS011;65640;43.154;25.658;2024-02-23T13:37:33;4.25;;;3.85;;
76712;SDS011;65640;43.154;25.658;2024-02-23T13:39:59;3.05;;;2.80;;
76712;SDS011;65640;43.154;25.658;2024-02-23T13:42:25;4.07;;;2.75;;
76712;SDS011;65640;43.154;25.658;2024-02-23T13:44:50;3.17;;;2.97;;
76712;SDS011;65640;43.154;25.658;2024-02-23T13:47:16;3.10;;;2.90;;
76712;SDS011;65640;43.154;25.658;2024-02-23T13:49:42;3.05;;;2.70;;
76712;SDS011;65640;43.154;25.658;2024-02-23T13:52:07;2.70;;;2.50;;
76712;SDS011;65640;43.154;25.658;2024-02-23T13:54:32;3.10;;;2.90;;
76712;SDS011;65640;43.154;25.658;2024-02-23T13:56:58;2.78;;;2.58;;
76712;SDS011;65640;43.154;25.658;2024-02-23T13:59:23;3.47;;;3.17;;
76712;SDS011;65640;43.154;25.658;2024-02-23T14:01:48;2.85;;;2.65;;
76712;SDS011;65640;43.154;25.658;2024-02-23T14:04:14;2.60;;;2.40;;
76712;SDS011;65640;43.154;25.658;2024-02-23T14:06:39;3.40;;;3.08;;
76712;SDS011;65640;43.154;25.658;2024-02-23T14:09:05;2.95;;;2.75;;
76712;SDS011;65640;43.154;25.658;2024-02-23T14:11:30;3.00;;;2.80;;
76712;SDS011;65640;43.154;25.658;2024-02-23T14:13:56;3.83;;;3.55;;
76712;SDS011;65640;43.154;25.658;2024-02-23T14:18:48;3.22;;;3.00;;
76712;SDS011;65640;43.154;25.658;2024-02-23T14:21:14;3.63;;;3.33;;
76712;SDS011;65640;43.154;25.658;2024-02-23T14:23:41;4.03;;;3.72;;
76712;SDS011;65640;43.154;25.658;2024-02-23T14:26:06;3.67;;;3.38;;
76712;SDS011;65640;43.154;25.658;2024-02-23T14:28:32;5.45;;;4.90;;
76712;SDS011;65640;43.154;25.658;2024-02-23T14:30:57;3.45;;;3.20;;
76712;SDS011;65640;43.154;25.658;2024-02-23T14:33:23;3.50;;;3.20;;
76712;SDS011;65640;43.154;25.658;2024-02-23T14:35:48;3.55;;;3.25;;
76712;SDS011;65640;43.154;25.658;2024-02-23T14:38:14;4.65;;;4.20;;
76712;SDS011;65640;43.154;25.658;2024-02-23T14:40:41;4.47;;;4.13;;
76712;SDS011;65640;43.154;25.658;2024-02-23T14:43:06;5.00;;;4.50;;
76712;SDS011;65640;43.154;25.658;2024-02-23T14:45:32;4.32;;;3.92;;
76712;SDS011;65640;43.154;25.658;2024-02-23T14:47:57;6.07;;;5.32;;
76712;SDS011;65640;43.154;25.658;2024-02-23T14:50:23;4.80;;;3.70;;
76712;SDS011;65640;43.154;25.658;2024-02-23T14:52:48;8.23;;;4.50;;